createdAt,value
2018-05-25T00:00:33.313Z,94.20
2018-05-25T00:10:34.640Z,94.30
2018-05-25T00:20:35.946Z,94.40
2018-05-25T01:00:59.277Z,94.50
2018-05-25T01:11:00.627Z,94.60
2018-05-25T01:21:01.983Z,94.70
2018-05-25T01:31:03.478Z,94.60
2018-05-25T01:41:04.801Z,94.70
2018-05-25T01:51:06.150Z,94.70
2018-05-25T02:01:08.230Z,94.80
2018-05-25T02:11:09.571Z,94.80
2018-05-25T02:21:10.910Z,95.10
2018-05-25T02:31:12.273Z,94.90
2018-05-25T02:41:13.623Z,94.90
2018-05-25T02:51:14.994Z,95.00
2018-05-25T03:11:22.985Z,94.90
2018-05-25T03:21:24.323Z,94.90
2018-05-25T03:31:25.676Z,94.90
2018-05-25T03:41:26.992Z,94.80
2018-05-25T03:51:29.076Z,95.00
2018-05-25T04:01:30.385Z,95.00
2018-05-25T04:21:40.433Z,94.50
2018-05-25T04:31:41.780Z,94.10
2018-05-25T04:41:43.902Z,93.00
2018-05-25T04:51:45.258Z,93.00
2018-05-25T05:01:46.602Z,93.10
2018-05-25T05:11:48.006Z,91.90
2018-05-25T05:21:49.353Z,91.50
2018-05-25T05:31:50.738Z,90.70
2018-05-25T05:41:52.232Z,90.50
2018-05-25T05:51:53.561Z,89.60
2018-05-25T06:01:55.062Z,88.40
2018-05-25T06:11:56.370Z,89.80
2018-05-25T06:21:58.487Z,89.10
2018-05-25T06:32:00.594Z,86.40
2018-05-25T06:42:02.725Z,84.10
2018-05-25T06:52:04.834Z,83.10
2018-05-25T07:02:06.951Z,82.60
2018-05-25T07:12:09.217Z,79.40
2018-05-25T07:22:10.533Z,79.30
2018-05-25T07:32:11.901Z,73.40
2018-05-25T07:42:13.255Z,70.40
2018-05-25T07:52:14.560Z,61.70
2018-05-25T08:02:16.642Z,51.60
2018-05-25T08:12:17.990Z,51.50
2018-05-25T08:22:19.482Z,51.00
2018-05-25T08:32:20.830Z,48.90
2018-05-25T08:42:22.181Z,37.30
2018-05-25T08:52:23.539Z,35.30
2018-05-25T09:02:25.669Z,33.20
2018-05-25T09:12:27.784Z,30.00
2018-05-25T09:22:29.874Z,35.50
2018-05-25T09:32:31.227Z,35.40
2018-05-25T09:42:32.565Z,45.90
2018-05-25T09:52:33.880Z,46.80
2018-05-25T10:02:35.222Z,44.40
2018-05-25T10:12:36.583Z,53.40
2018-05-25T10:22:38.850Z,73.20
2018-05-25T10:32:40.209Z,73.10
2018-05-25T10:42:41.559Z,74.50
2018-05-25T10:52:43.049Z,68.60
2018-05-25T11:02:44.356Z,69.40
2018-05-25T11:12:45.681Z,72.80
2018-05-25T11:22:47.018Z,74.90
2018-05-25T11:32:48.330Z,73.40
2018-05-25T11:42:49.641Z,73.70
2018-05-25T11:52:51.142Z,74.20
2018-05-25T12:02:52.479Z,75.50
2018-05-25T12:12:54.578Z,73.60
2018-05-25T12:22:55.930Z,73.60
2018-05-25T12:32:57.275Z,75.40
2018-05-25T12:42:58.614Z,74.00
2018-05-25T12:52:59.962Z,76.90
2018-05-25T13:03:01.273Z,79.80
2018-05-25T13:13:03.382Z,89.80
2018-05-25T13:23:04.883Z,89.80
2018-05-25T13:33:06.192Z,90.60
2018-05-25T13:43:08.269Z,90.50
2018-05-25T13:53:09.631Z,90.50
2018-05-25T14:03:10.978Z,89.70
2018-05-25T14:23:20.113Z,89.00
2018-05-25T14:33:21.459Z,88.20
2018-05-25T14:53:30.738Z,85.30
2018-05-25T15:03:32.356Z,86.80
2018-05-25T15:23:41.742Z,83.60
2018-05-25T15:33:43.666Z,83.70
2018-05-25T16:03:59.188Z,83.40
2018-05-25T16:14:00.533Z,84.90
2018-05-25T16:34:08.285Z,82.80
2018-05-25T16:44:11.806Z,83.10
2018-05-25T16:54:13.163Z,85.70
2018-05-25T17:04:15.291Z,90.90
2018-05-25T17:14:17.422Z,91.60
2018-05-25T17:24:18.806Z,91.60
2018-05-25T17:34:21.022Z,92.40
2018-05-25T17:44:22.368Z,92.40
2018-05-25T17:54:23.715Z,92.40
2018-05-25T18:04:25.829Z,93.20
2018-05-25T18:24:34.448Z,93.20
2018-05-25T18:34:35.800Z,93.50
2018-05-25T18:44:37.146Z,93.70
2018-05-25T18:54:38.642Z,93.90
2018-05-25T19:04:40.781Z,93.80
2018-05-25T19:14:42.077Z,93.70
2018-05-25T19:24:44.203Z,94.00
2018-05-25T19:34:45.527Z,94.00
2018-05-25T19:44:47.037Z,93.90
2018-05-25T19:54:48.385Z,93.70
2018-05-25T20:25:03.590Z,94.10
2018-05-25T20:35:04.995Z,93.90
2018-05-25T20:45:06.316Z,94.00
2018-05-25T20:55:07.635Z,94.20
2018-05-25T21:05:08.978Z,94.50
2018-05-25T21:15:10.477Z,94.40
2018-05-25T21:25:11.799Z,94.40
2018-05-25T21:35:13.099Z,94.40
2018-05-25T21:45:14.439Z,94.50
2018-05-25T21:55:15.785Z,94.20
2018-05-25T22:05:17.134Z,94.30
2018-05-25T22:15:18.478Z,94.40
2018-05-25T22:25:20.595Z,94.50
2018-05-25T22:35:22.712Z,94.30
2018-05-25T22:45:24.055Z,94.30
2018-05-25T22:55:25.402Z,94.30
2018-05-25T23:05:27.475Z,94.40
2018-05-25T23:55:59.182Z,94.30
